Arab, Alabama
Current Conditions -  °F | °C
As of 7:35 PM on Thursday 27 Nov 2014 (Local Time) from K8A0 Reporting Station
Scattered Clouds Scattered Clouds  
Wind Chill: 29°   Ceiling: Unl
Heat Index: 36°   Visibility: 10mi
Dew Point: 32°   Wind: 8mph
Humidity: 87%   Direction: 320°NW
Pressure: 30.4"   Gusts: NA
Location:  34.32°N, 86.49°W
Report Text: K8A0 280135Z AUTO 32007KT 10SM SCT033 02/00 A3040 RMK AO2
Loading
Personal Weather Stations






























Interactive Weather Map New forecast layout! Learn more

10-Day Weather Forecast

Advertisements
Track Severe Weather on mobile